sensor_id;sensor_type;location;lat;lon;timestamp;pressure;altitude;pressure_sealevel;temperature
76583;BMP280;65462;52.148;7.940;2023-04-03T00:02:06;102238.56;;;4.10
76583;BMP280;65462;52.148;7.940;2023-04-03T00:04:31;102240.03;;;4.06
76583;BMP280;65462;52.148;7.940;2023-04-03T00:06:57;102233.66;;;4.02
76583;BMP280;65462;52.148;7.940;2023-04-03T00:09:22;102242.75;;;3.99
76583;BMP280;65462;52.148;7.940;2023-04-03T00:11:47;102234.00;;;3.94
76583;BMP280;65462;52.148;7.940;2023-04-03T00:14:12;102234.69;;;3.89
76583;BMP280;65462;52.148;7.940;2023-04-03T00:16:38;102239.38;;;3.87
76583;BMP280;65462;52.148;7.940;2023-04-03T00:19:03;102240.84;;;3.83
76583;BMP280;65462;52.148;7.940;2023-04-03T00:21:28;102241.03;;;3.81
76583;BMP280;65462;52.148;7.940;2023-04-03T00:23:53;102240.69;;;3.78
76583;BMP280;65462;52.148;7.940;2023-04-03T00:26:19;102246.38;;;3.75
76583;BMP280;65462;52.148;7.940;2023-04-03T00:28:45;102245.28;;;3.71
76583;BMP280;65462;52.148;7.940;2023-04-03T00:31:14;102247.75;;;3.66
76583;BMP280;65462;52.148;7.940;2023-04-03T00:33:40;102250.81;;;3.63
76583;BMP280;65462;52.148;7.940;2023-04-03T00:36:07;102246.06;;;3.60
76583;BMP280;65462;52.148;7.940;2023-04-03T00:38:32;102243.88;;;3.57
76583;BMP280;65462;52.148;7.940;2023-04-03T00:40:57;102239.13;;;3.54
76583;BMP280;65462;52.148;7.940;2023-04-03T00:43:24;102240.38;;;3.51
76583;BMP280;65462;52.148;7.940;2023-04-03T00:45:53;102234.78;;;3.48
76583;BMP280;65462;52.148;7.940;2023-04-03T00:48:45;102242.06;;;3.46
76583;BMP280;65462;52.148;7.940;2023-04-03T00:51:14;102242.50;;;3.43
76583;BMP280;65462;52.148;7.940;2023-04-03T00:53:46;102242.97;;;3.40
76583;BMP280;65462;52.148;7.940;2023-04-03T00:56:14;102248.63;;;3.37
76583;BMP280;65462;52.148;7.940;2023-04-03T00:58:44;102243.06;;;3.33
76583;BMP280;65462;52.148;7.940;2023-04-03T01:01:15;102245.66;;;3.33
76583;BMP280;65462;52.148;7.940;2023-04-03T01:03:41;102246.25;;;3.35
76583;BMP280;65462;52.148;7.940;2023-04-03T01:06:06;102249.16;;;3.27
76583;BMP280;65462;52.148;7.940;2023-04-03T01:08:32;102245.09;;;3.19
76583;BMP280;65462;52.148;7.940;2023-04-03T01:10:57;102251.34;;;3.18
76583;BMP280;65462;52.148;7.940;2023-04-03T01:13:29;102258.69;;;3.21
76583;BMP280;65462;52.148;7.940;2023-04-03T01:15:55;102267.44;;;3.15
76583;BMP280;65462;52.148;7.940;2023-04-03T01:18:22;102260.63;;;3.14
76583;BMP280;65462;52.148;7.940;2023-04-03T01:25:55;102264.59;;;3.17
76583;BMP280;65462;52.148;7.940;2023-04-03T01:33:18;102264.34;;;3.07
76583;BMP280;65462;52.148;7.940;2023-04-03T01:35:43;102265.56;;;3.04
76583;BMP280;65462;52.148;7.940;2023-04-03T01:38:09;102271.22;;;3.01
76583;BMP280;65462;52.148;7.940;2023-04-03T01:40:35;102275.66;;;3.01
76583;BMP280;65462;52.148;7.940;2023-04-03T01:43:00;102279.75;;;2.97
76583;BMP280;65462;52.148;7.940;2023-04-03T01:45:26;102276.75;;;2.93
76583;BMP280;65462;52.148;7.940;2023-04-03T01:47:51;102280.66;;;2.91
76583;BMP280;65462;52.148;7.940;2023-04-03T01:50:16;102280.28;;;2.87
76583;BMP280;65462;52.148;7.940;2023-04-03T01:52:42;102288.69;;;2.89
76583;BMP280;65462;52.148;7.940;2023-04-03T01:55:07;102284.84;;;2.92
76583;BMP280;65462;52.148;7.940;2023-04-03T01:57:33;102276.63;;;2.88
76583;BMP280;65462;52.148;7.940;2023-04-03T01:59:58;102278.44;;;2.88
76583;BMP280;65462;52.148;7.940;2023-04-03T02:02:23;102277.88;;;2.86
76583;BMP280;65462;52.148;7.940;2023-04-03T02:04:48;102272.75;;;2.79
76583;BMP280;65462;52.148;7.940;2023-04-03T02:07:14;102273.19;;;2.76
76583;BMP280;65462;52.148;7.940;2023-04-03T02:09:39;102276.66;;;2.70
76583;BMP280;65462;52.148;7.940;2023-04-03T02:12:04;102278.47;;;2.69
76583;BMP280;65462;52.148;7.940;2023-04-03T02:14:30;102276.09;;;2.68
76583;BMP280;65462;52.148;7.940;2023-04-03T02:16:55;102278.47;;;2.69
76583;BMP280;65462;52.148;7.940;2023-04-03T02:19:20;102275.28;;;2.67
76583;BMP280;65462;52.148;7.940;2023-04-03T02:21:46;102287.97;;;2.64
76583;BMP280;65462;52.148;7.940;2023-04-03T02:24:11;102281.72;;;2.65
76583;BMP280;65462;52.148;7.940;2023-04-03T02:26:36;102279.25;;;2.58
76583;BMP280;65462;52.148;7.940;2023-04-03T02:29:02;102284.44;;;2.58
76583;BMP280;65462;52.148;7.940;2023-04-03T02:31:27;102273.22;;;2.58
76583;BMP280;65462;52.148;7.940;2023-04-03T02:33:52;102278.63;;;2.56
76583;BMP280;65462;52.148;7.940;2023-04-03T02:36:18;102284.34;;;2.47
76583;BMP280;65462;52.148;7.940;2023-04-03T02:38:43;102281.63;;;2.42
76583;BMP280;65462;52.148;7.940;2023-04-03T02:41:10;102278.84;;;2.37
76583;BMP280;65462;52.148;7.940;2023-04-03T02:43:37;102274.06;;;2.34
76583;BMP280;65462;52.148;7.940;2023-04-03T02:46:02;102284.13;;;2.30
76583;BMP280;65462;52.148;7.940;2023-04-03T02:48:28;102284.44;;;2.22
76583;BMP280;65462;52.148;7.940;2023-04-03T02:50:53;102278.47;;;2.15
76583;BMP280;65462;52.148;7.940;2023-04-03T02:53:19;102285.28;;;2.16
76583;BMP280;65462;52.148;7.940;2023-04-03T02:55:44;102278.66;;;2.13
76583;BMP280;65462;52.148;7.940;2023-04-03T02:58:10;102275.28;;;2.13
76583;BMP280;65462;52.148;7.940;2023-04-03T03:00:36;102286.50;;;2.13
76583;BMP280;65462;52.148;7.940;2023-04-03T03:03:02;102279.53;;;2.07
76583;BMP280;65462;52.148;7.940;2023-04-03T03:05:27;102284.38;;;2.04
76583;BMP280;65462;52.148;7.940;2023-04-03T03:07:53;102285.22;;;1.98
76583;BMP280;65462;52.148;7.940;2023-04-03T03:10:18;102277.16;;;2.06
76583;BMP280;65462;52.148;7.940;2023-04-03T03:12:44;102275.13;;;2.08
76583;BMP280;65462;52.148;7.940;2023-04-03T03:15:10;102274.13;;;2.09
76583;BMP280;65462;52.148;7.940;2023-04-03T03:17:35;102283.13;;;2.13
76583;BMP280;65462;52.148;7.940;2023-04-03T03:20:02;102284.13;;;2.12
76583;BMP280;65462;52.148;7.940;2023-04-03T03:22:28;102285.91;;;2.11
76583;BMP280;65462;52.148;7.940;2023-04-03T03:24:53;102283.13;;;2.13
76583;BMP280;65462;52.148;7.940;2023-04-03T03:27:18;102285.34;;;2.09
76583;BMP280;65462;52.148;7.940;2023-04-03T03:29:43;102286.78;;;2.05
76583;BMP280;65462;52.148;7.940;2023-04-03T03:32:09;102296.41;;;2.05
76583;BMP280;65462;52.148;7.940;2023-04-03T03:34:34;102289.63;;;1.97
76583;BMP280;65462;52.148;7.940;2023-04-03T03:37:00;102292.91;;;1.93
76583;BMP280;65462;52.148;7.940;2023-04-03T03:39:25;102297.31;;;1.92
76583;BMP280;65462;52.148;7.940;2023-04-03T03:41:51;102288.09;;;1.90
76583;BMP280;65462;52.148;7.940;2023-04-03T03:44:18;102297.16;;;1.87
76583;BMP280;65462;52.148;7.940;2023-04-03T03:46:44;102295.78;;;1.85
76583;BMP280;65462;52.148;7.940;2023-04-03T03:49:09;102303.38;;;1.86
76583;BMP280;65462;52.148;7.940;2023-04-03T03:51:36;102295.19;;;1.83
76583;BMP280;65462;52.148;7.940;2023-04-03T03:54:01;102291.00;;;1.82
76583;BMP280;65462;52.148;7.940;2023-04-03T03:56:27;102298.00;;;1.81
76583;BMP280;65462;52.148;7.940;2023-04-03T03:58:52;102298.22;;;1.80
76583;BMP280;65462;52.148;7.940;2023-04-03T04:01:17;102302.06;;;1.77
76583;BMP280;65462;52.148;7.940;2023-04-03T04:03:43;102306.47;;;1.77
76583;BMP280;65462;52.148;7.940;2023-04-03T04:06:08;102309.50;;;1.74
76583;BMP280;65462;52.148;7.940;2023-04-03T04:08:33;102308.84;;;1.78
76583;BMP280;65462;52.148;7.940;2023-04-03T04:10:59;102313.91;;;1.73
76583;BMP280;65462;52.148;7.940;2023-04-03T04:13:24;102311.91;;;1.69
76583;BMP280;65462;52.148;7.940;2023-04-03T04:15:49;102321.94;;;1.65
76583;BMP280;65462;52.148;7.940;2023-04-03T04:18:15;102309.97;;;1.64
76583;BMP280;65462;52.148;7.940;2023-04-03T04:20:40;102312.72;;;1.69
76583;BMP280;65462;52.148;7.940;2023-04-03T04:23:06;102311.91;;;1.69
76583;BMP280;65462;52.148;7.940;2023-04-03T04:25:31;102305.72;;;1.70
76583;BMP280;65462;52.148;7.940;2023-04-03T04:27:56;102315.59;;;1.61
76583;BMP280;65462;52.148;7.940;2023-04-03T04:30:21;102304.97;;;1.56
76583;BMP280;65462;52.148;7.940;2023-04-03T04:32:47;102322.00;;;1.58
76583;BMP280;65462;52.148;7.940;2023-04-03T04:35:12;102318.78;;;1.63
76583;BMP280;65462;52.148;7.940;2023-04-03T04:37:37;102317.78;;;1.64
76583;BMP280;65462;52.148;7.940;2023-04-03T04:40:03;102325.78;;;1.62
76583;BMP280;65462;52.148;7.940;2023-04-03T04:42:28;102329.19;;;1.63
76583;BMP280;65462;52.148;7.940;2023-04-03T04:44:53;102333.81;;;1.61
76583;BMP280;65462;52.148;7.940;2023-04-03T04:47:19;102333.03;;;1.60
76583;BMP280;65462;52.148;7.940;2023-04-03T04:49:44;102344.44;;;1.59
76583;BMP280;65462;52.148;7.940;2023-04-03T04:52:12;102335.22;;;1.57
76583;BMP280;65462;52.148;7.940;2023-04-03T04:54:37;102334.81;;;1.60
76583;BMP280;65462;52.148;7.940;2023-04-03T04:57:03;102339.03;;;1.61
76583;BMP280;65462;52.148;7.940;2023-04-03T04:59:28;102340.88;;;1.54
76583;BMP280;65462;52.148;7.940;2023-04-03T05:01:53;102340.25;;;1.52
76583;BMP280;65462;52.148;7.940;2023-04-03T05:04:18;102344.94;;;1.37
76583;BMP280;65462;52.148;7.940;2023-04-03T05:06:44;102347.78;;;1.35
76583;BMP280;65462;52.148;7.940;2023-04-03T05:09:09;102346.38;;;1.33
76583;BMP280;65462;52.148;7.940;2023-04-03T05:11:35;102349.75;;;1.33
76583;BMP280;65462;52.148;7.940;2023-04-03T05:14:01;102348.03;;;1.27
76583;BMP280;65462;52.148;7.940;2023-04-03T05:16:26;102344.63;;;1.20
76583;BMP280;65462;52.148;7.940;2023-04-03T05:18:51;102341.63;;;1.23
76583;BMP280;65462;52.148;7.940;2023-04-03T05:21:16;102341.88;;;1.15
76583;BMP280;65462;52.148;7.940;2023-04-03T05:26:10;102351.47;;;1.15
76583;BMP280;65462;52.148;7.940;2023-04-03T05:28:36;102352.66;;;1.19
76583;BMP280;65462;52.148;7.940;2023-04-03T05:31:01;102361.06;;;1.21
76583;BMP280;65462;52.148;7.940;2023-04-03T05:33:27;102356.91;;;1.13
76583;BMP280;65462;52.148;7.940;2023-04-03T05:35:53;102351.88;;;1.12
76583;BMP280;65462;52.148;7.940;2023-04-03T05:38:19;102359.50;;;1.13
76583;BMP280;65462;52.148;7.940;2023-04-03T05:40:45;102351.91;;;1.05
76583;BMP280;65462;52.148;7.940;2023-04-03T05:43:10;102373.09;;;1.15
76583;BMP280;65462;52.148;7.940;2023-04-03T05:45:35;102373.50;;;1.19
76583;BMP280;65462;52.148;7.940;2023-04-03T05:48:01;102369.69;;;1.15
76583;BMP280;65462;52.148;7.940;2023-04-03T05:50:26;102371.50;;;1.14
76583;BMP280;65462;52.148;7.940;2023-04-03T05:52:53;102364.31;;;1.10
76583;BMP280;65462;52.148;7.940;2023-04-03T05:55:20;102371.69;;;1.19
76583;BMP280;65462;52.148;7.940;2023-04-03T05:57:45;102371.88;;;1.18
76583;BMP280;65462;52.148;7.940;2023-04-03T06:00:13;102368.69;;;1.16
76583;BMP280;65462;52.148;7.940;2023-04-03T06:02:40;102379.69;;;1.18
76583;BMP280;65462;52.148;7.940;2023-04-03T06:05:07;102371.06;;;1.17
76583;BMP280;65462;52.148;7.940;2023-04-03T06:07:33;102377.47;;;1.28
76583;BMP280;65462;52.148;7.940;2023-04-03T06:09:58;102379.44;;;1.32
76583;BMP280;65462;52.148;7.940;2023-04-03T06:12:24;102391.38;;;1.40
76583;BMP280;65462;52.148;7.940;2023-04-03T06:14:49;102385.00;;;1.36
76583;BMP280;65462;52.148;7.940;2023-04-03T06:17:17;102397.97;;;1.49
76583;BMP280;65462;52.148;7.940;2023-04-03T06:19:43;102386.13;;;1.53
76583;BMP280;65462;52.148;7.940;2023-04-03T06:22:09;102390.91;;;1.56
76583;BMP280;65462;52.148;7.940;2023-04-03T06:24:36;102376.50;;;1.60
76583;BMP280;65462;52.148;7.940;2023-04-03T06:27:02;102396.88;;;1.70
76583;BMP280;65462;52.148;7.940;2023-04-03T06:29:27;102379.22;;;1.72
76583;BMP280;65462;52.148;7.940;2023-04-03T06:31:52;102392.81;;;1.80
76583;BMP280;65462;52.148;7.940;2023-04-03T06:34:18;102402.91;;;1.95
76583;BMP280;65462;52.148;7.940;2023-04-03T06:36:44;102404.53;;;1.96
76583;BMP280;65462;52.148;7.940;2023-04-03T06:39:15;102398.88;;;1.99
76583;BMP280;65462;52.148;7.940;2023-04-03T06:41:42;102402.69;;;2.03
76583;BMP280;65462;52.148;7.940;2023-04-03T06:44:07;102416.66;;;2.08
76583;BMP280;65462;52.148;7.940;2023-04-03T06:46:37;102431.22;;;2.23
76583;BMP280;65462;52.148;7.940;2023-04-03T06:49:02;102419.69;;;2.30
76583;BMP280;65462;52.148;7.940;2023-04-03T06:51:28;102407.22;;;2.39
76583;BMP280;65462;52.148;7.940;2023-04-03T06:53:58;102415.00;;;2.45
76583;BMP280;65462;52.148;7.940;2023-04-03T06:56:24;102441.50;;;2.85
76583;BMP280;65462;52.148;7.940;2023-04-03T06:58:53;102420.91;;;3.13
76583;BMP280;65462;52.148;7.940;2023-04-03T07:01:27;102437.38;;;3.62
76583;BMP280;65462;52.148;7.940;2023-04-03T07:03:53;102430.09;;;4.05
76583;BMP280;65462;52.148;7.940;2023-04-03T07:06:19;102442.44;;;4.28
76583;BMP280;65462;52.148;7.940;2023-04-03T07:08:45;102449.72;;;4.26
76583;BMP280;65462;52.148;7.940;2023-04-03T07:11:11;102448.41;;;4.17
76583;BMP280;65462;52.148;7.940;2023-04-03T07:13:37;102444.19;;;4.04
76583;BMP280;65462;52.148;7.940;2023-04-03T07:16:03;102447.13;;;3.96
76583;BMP280;65462;52.148;7.940;2023-04-03T07:18:30;102446.91;;;3.86
76583;BMP280;65462;52.148;7.940;2023-04-03T07:20:55;102437.63;;;3.72
76583;BMP280;65462;52.148;7.940;2023-04-03T07:23:21;102432.25;;;3.55
76583;BMP280;65462;52.148;7.940;2023-04-03T07:25:48;102424.94;;;3.46
76583;BMP280;65462;52.148;7.940;2023-04-03T07:28:22;102441.47;;;3.40
76583;BMP280;65462;52.148;7.940;2023-04-03T07:30:49;102471.97;;;3.46
76583;BMP280;65462;52.148;7.940;2023-04-03T07:33:28;102473.53;;;3.47
76583;BMP280;65462;52.148;7.940;2023-04-03T07:35:54;102439.00;;;3.26
76583;BMP280;65462;52.148;7.940;2023-04-03T07:38:22;102471.44;;;3.55
76583;BMP280;65462;52.148;7.940;2023-04-03T07:41:10;102470.63;;;3.55
76583;BMP280;65462;52.148;7.940;2023-04-03T07:43:43;102485.88;;;3.58
76583;BMP280;65462;52.148;7.940;2023-04-03T07:46:25;102430.75;;;3.29
76583;BMP280;65462;52.148;7.940;2023-04-03T07:48:53;102475.56;;;3.63
76583;BMP280;65462;52.148;7.940;2023-04-03T07:51:21;102425.44;;;3.36
76583;BMP280;65462;52.148;7.940;2023-04-03T07:53:50;102434.94;;;3.49
76583;BMP280;65462;52.148;7.940;2023-04-03T07:56:18;102420.50;;;3.46
76583;BMP280;65462;52.148;7.940;2023-04-03T07:58:49;102441.91;;;3.55
76583;BMP280;65462;52.148;7.940;2023-04-03T08:01:20;102431.00;;;3.58
76583;BMP280;65462;52.148;7.940;2023-04-03T08:03:45;102477.25;;;3.87
76583;BMP280;65462;52.148;7.940;2023-04-03T08:06:11;102433.75;;;3.63
76583;BMP280;65462;52.148;7.940;2023-04-03T08:08:37;102452.56;;;3.83
76583;BMP280;65462;52.148;7.940;2023-04-03T08:11:03;102439.34;;;3.78
76583;BMP280;65462;52.148;7.940;2023-04-03T08:13:34;102438.94;;;3.81
76583;BMP280;65462;52.148;7.940;2023-04-03T08:16:14;102490.06;;;4.18
76583;BMP280;65462;52.148;7.940;2023-04-03T08:18:41;102486.88;;;4.16
76583;BMP280;65462;52.148;7.940;2023-04-03T08:21:10;102475.38;;;4.17
76583;BMP280;65462;52.148;7.940;2023-04-03T08:23:40;102488.03;;;4.43
76583;BMP280;65462;52.148;7.940;2023-04-03T08:26:08;102448.34;;;4.35
76583;BMP280;65462;52.148;7.940;2023-04-03T08:28:49;102476.59;;;4.68
76583;BMP280;65462;52.148;7.940;2023-04-03T08:31:17;102478.50;;;4.84
76583;BMP280;65462;52.148;7.940;2023-04-03T08:33:44;102477.00;;;4.88
76583;BMP280;65462;52.148;7.940;2023-04-03T08:36:28;102487.13;;;4.96
76583;BMP280;65462;52.148;7.940;2023-04-03T08:38:55;102487.59;;;5.04
76583;BMP280;65462;52.148;7.940;2023-04-03T08:44:10;102484.25;;;5.21
76583;BMP280;65462;52.148;7.940;2023-04-03T08:46:42;102495.94;;;5.30
76583;BMP280;65462;52.148;7.940;2023-04-03T08:49:18;102448.28;;;5.16
76583;BMP280;65462;52.148;7.940;2023-04-03T08:51:47;102479.94;;;5.54
76583;BMP280;65462;52.148;7.940;2023-04-03T08:54:25;102467.59;;;5.55
76583;BMP280;65462;52.148;7.940;2023-04-03T08:56:53;102451.16;;;5.59
76583;BMP280;65462;52.148;7.940;2023-04-03T08:59:35;102458.72;;;5.72
76583;BMP280;65462;52.148;7.940;2023-04-03T09:02:08;102468.78;;;5.92
76583;BMP280;65462;52.148;7.940;2023-04-03T09:04:41;102483.88;;;6.02
76583;BMP280;65462;52.148;7.940;2023-04-03T09:07:14;102464.47;;;6.03
76583;BMP280;65462;52.148;7.940;2023-04-03T09:09:49;102456.78;;;6.13
76583;BMP280;65462;52.148;7.940;2023-04-03T09:12:23;102461.72;;;6.26
76583;BMP280;65462;52.148;7.940;2023-04-03T09:15:17;102484.66;;;6.52
76583;BMP280;65462;52.148;7.940;2023-04-03T09:17:56;102455.09;;;6.40
76583;BMP280;65462;52.148;7.940;2023-04-03T09:20:38;102493.94;;;6.76
76583;BMP280;65462;52.148;7.940;2023-04-03T09:25:51;102504.63;;;6.91
76583;BMP280;65462;52.148;7.940;2023-04-03T09:28:18;102461.66;;;6.81
76583;BMP280;65462;52.148;7.940;2023-04-03T09:30:44;102445.75;;;6.87
76583;BMP280;65462;52.148;7.940;2023-04-03T09:33:10;102482.25;;;7.11
76583;BMP280;65462;52.148;7.940;2023-04-03T09:35:37;102493.47;;;7.28
76583;BMP280;65462;52.148;7.940;2023-04-03T09:40:41;102500.47;;;7.39
76583;BMP280;65462;52.148;7.940;2023-04-03T09:45:42;102494.69;;;7.42
76583;BMP280;65462;52.148;7.940;2023-04-03T09:53:40;102477.78;;;7.59
76583;BMP280;65462;52.148;7.940;2023-04-03T09:58:47;102493.34;;;7.98
76583;BMP280;65462;52.148;7.940;2023-04-03T10:01:31;102482.16;;;8.12
76583;BMP280;65462;52.148;7.940;2023-04-03T10:04:15;102442.59;;;8.02
76583;BMP280;65462;52.148;7.940;2023-04-03T10:09:31;102477.09;;;8.48
76583;BMP280;65462;52.148;7.940;2023-04-03T10:12:04;102485.06;;;8.58
76583;BMP280;65462;52.148;7.940;2023-04-03T10:14:31;102474.56;;;8.68
76583;BMP280;65462;52.148;7.940;2023-04-03T10:19:44;102468.84;;;8.86
76583;BMP280;65462;52.148;7.940;2023-04-03T10:27:59;102470.66;;;8.80
76583;BMP280;65462;52.148;7.940;2023-04-03T10:33:42;102465.84;;;8.67
76583;BMP280;65462;52.148;7.940;2023-04-03T10:42:52;102463.00;;;8.79
76583;BMP280;65462;52.148;7.940;2023-04-03T10:49:05;102422.94;;;8.82
76583;BMP280;65462;52.148;7.940;2023-04-03T10:51:44;102443.81;;;8.99
76583;BMP280;65462;52.148;7.940;2023-04-03T10:56:48;102445.16;;;8.96
76583;BMP280;65462;52.148;7.940;2023-04-03T10:59:34;102454.09;;;8.90
76583;BMP280;65462;52.148;7.940;2023-04-03T11:04:53;102407.63;;;8.64
76583;BMP280;65462;52.148;7.940;2023-04-03T11:07:22;102449.31;;;8.87
76583;BMP280;65462;52.148;7.940;2023-04-03T11:10:00;102394.69;;;8.67
76583;BMP280;65462;52.148;7.940;2023-04-03T11:12:36;102441.44;;;8.97
76583;BMP280;65462;52.148;7.940;2023-04-03T11:15:30;102404.75;;;8.75
76583;BMP280;65462;52.148;7.940;2023-04-03T11:17:59;102408.44;;;8.79
76583;BMP280;65462;52.148;7.940;2023-04-03T11:20:42;102397.06;;;8.69
76583;BMP280;65462;52.148;7.940;2023-04-03T11:23:32;102436.69;;;8.89
76583;BMP280;65462;52.148;7.940;2023-04-03T11:26:17;102413.97;;;8.78
76583;BMP280;65462;52.148;7.940;2023-04-03T11:28:46;102401.81;;;8.57
76583;BMP280;65462;52.148;7.940;2023-04-03T11:34:41;102414.97;;;8.52
76583;BMP280;65462;52.148;7.940;2023-04-03T11:37:20;102411.75;;;8.50
76583;BMP280;65462;52.148;7.940;2023-04-03T11:40:28;102376.97;;;8.48
76583;BMP280;65462;52.148;7.940;2023-04-03T11:50:48;102394.53;;;9.09
76583;BMP280;65462;52.148;7.940;2023-04-03T11:55:46;102413.78;;;9.25
76583;BMP280;65462;52.148;7.940;2023-04-03T11:58:33;102403.50;;;9.23
76583;BMP280;65462;52.148;7.940;2023-04-03T12:01:07;102372.66;;;9.04
76583;BMP280;65462;52.148;7.940;2023-04-03T12:03:56;102388.75;;;9.12
76583;BMP280;65462;52.148;7.940;2023-04-03T12:09:01;102385.06;;;9.23
76583;BMP280;65462;52.148;7.940;2023-04-03T12:11:30;102367.91;;;9.21
76583;BMP280;65462;52.148;7.940;2023-04-03T12:16:26;102374.22;;;9.55
76583;BMP280;65462;52.148;7.940;2023-04-03T12:21:20;102372.28;;;9.96
76583;BMP280;65462;52.148;7.940;2023-04-03T12:26:46;102363.91;;;10.38
76583;BMP280;65462;52.148;7.940;2023-04-03T12:33:03;102370.97;;;10.52
76583;BMP280;65462;52.148;7.940;2023-04-03T12:35:36;102328.88;;;10.22
76583;BMP280;65462;52.148;7.940;2023-04-03T12:38:36;102363.66;;;10.44
76583;BMP280;65462;52.148;7.940;2023-04-03T12:41:36;102361.63;;;10.26
76583;BMP280;65462;52.148;7.940;2023-04-03T12:46:52;102354.06;;;9.94
76583;BMP280;65462;52.148;7.940;2023-04-03T12:49:38;102343.59;;;9.69
76583;BMP280;65462;52.148;7.940;2023-04-03T12:52:40;102344.13;;;9.61
76583;BMP280;65462;52.148;7.940;2023-04-03T12:55:18;102357.59;;;9.59
76583;BMP280;65462;52.148;7.940;2023-04-03T12:57:47;102349.69;;;9.44
76583;BMP280;65462;52.148;7.940;2023-04-03T13:00:29;102357.59;;;9.39
76583;BMP280;65462;52.148;7.940;2023-04-03T13:02:57;102348.91;;;9.34
76583;BMP280;65462;52.148;7.940;2023-04-03T13:05:29;102324.91;;;9.35
76583;BMP280;65462;52.148;7.940;2023-04-03T13:08:02;102319.09;;;9.38
76583;BMP280;65462;52.148;7.940;2023-04-03T13:10:35;102332.53;;;9.57
76583;BMP280;65462;52.148;7.940;2023-04-03T13:13:14;102333.31;;;9.68
76583;BMP280;65462;52.148;7.940;2023-04-03T13:15:45;102322.22;;;9.60
76583;BMP280;65462;52.148;7.940;2023-04-03T13:18:31;102328.50;;;9.85
76583;BMP280;65462;52.148;7.940;2023-04-03T13:21:03;102302.66;;;9.77
76583;BMP280;65462;52.148;7.940;2023-04-03T13:23:30;102294.19;;;9.80
76583;BMP280;65462;52.148;7.940;2023-04-03T13:25:58;102294.16;;;9.85
76583;BMP280;65462;52.148;7.940;2023-04-03T13:28:29;102301.75;;;10.01
76583;BMP280;65462;52.148;7.940;2023-04-03T13:31:25;102328.06;;;10.21
76583;BMP280;65462;52.148;7.940;2023-04-03T13:33:52;102322.50;;;10.23
76583;BMP280;65462;52.148;7.940;2023-04-03T13:36:44;102313.56;;;10.14
76583;BMP280;65462;52.148;7.940;2023-04-03T13:41:38;102295.97;;;9.99
76583;BMP280;65462;52.148;7.940;2023-04-03T13:45:05;102280.41;;;9.88
76583;BMP280;65462;52.148;7.940;2023-04-03T13:47:44;102319.94;;;10.08
76583;BMP280;65462;52.148;7.940;2023-04-03T13:50:23;102276.22;;;9.82
76583;BMP280;65462;52.148;7.940;2023-04-03T13:53:15;102309.06;;;10.14
76583;BMP280;65462;52.148;7.940;2023-04-03T13:56:06;102300.13;;;10.10
76583;BMP280;65462;52.148;7.940;2023-04-03T14:01:49;102276.00;;;10.27
76583;BMP280;65462;52.148;7.940;2023-04-03T14:04:24;102273.28;;;10.37
76583;BMP280;65462;52.148;7.940;2023-04-03T14:09:25;102288.47;;;10.55
76583;BMP280;65462;52.148;7.940;2023-04-03T14:15:26;102264.41;;;10.57
76583;BMP280;65462;52.148;7.940;2023-04-03T14:17:52;102244.09;;;10.52
76583;BMP280;65462;52.148;7.940;2023-04-03T14:20:21;102233.19;;;10.64
76583;BMP280;65462;52.148;7.940;2023-04-03T14:22:53;102245.91;;;10.90
76583;BMP280;65462;52.148;7.940;2023-04-03T14:25:21;102248.16;;;11.02
76583;BMP280;65462;52.148;7.940;2023-04-03T14:30:23;102254.47;;;11.30
76583;BMP280;65462;52.148;7.940;2023-04-03T14:32:48;102250.19;;;11.34
76583;BMP280;65462;52.148;7.940;2023-04-03T14:35:15;102247.53;;;11.39
76583;BMP280;65462;52.148;7.940;2023-04-03T14:37:40;102240.31;;;11.44
76583;BMP280;65462;52.148;7.940;2023-04-03T14:40:07;102241.00;;;11.50
76583;BMP280;65462;52.148;7.940;2023-04-03T14:42:35;102241.56;;;11.47
76583;BMP280;65462;52.148;7.940;2023-04-03T14:45:06;102242.97;;;11.39
76583;BMP280;65462;52.148;7.940;2023-04-03T14:47:33;102232.97;;;11.36
76583;BMP280;65462;52.148;7.940;2023-04-03T14:50:04;102242.25;;;11.34
76583;BMP280;65462;52.148;7.940;2023-04-03T14:52:33;102245.97;;;11.33
76583;BMP280;65462;52.148;7.940;2023-04-03T14:54:59;102242.69;;;11.22
76583;BMP280;65462;52.148;7.940;2023-04-03T14:57:27;102235.63;;;11.13
76583;BMP280;65462;52.148;7.940;2023-04-03T14:59:52;102248.16;;;11.02
76583;BMP280;65462;52.148;7.940;2023-04-03T15:02:31;102244.53;;;10.93
76583;BMP280;65462;52.148;7.940;2023-04-03T15:04:57;102245.44;;;10.83
76583;BMP280;65462;52.148;7.940;2023-04-03T15:07:25;102240.22;;;10.73
76583;BMP280;65462;52.148;7.940;2023-04-03T15:09:53;102233.13;;;10.69
76583;BMP280;65462;52.148;7.940;2023-04-03T15:12:21;102250.66;;;10.60
76583;BMP280;65462;52.148;7.940;2023-04-03T15:14:46;102248.88;;;10.50
76583;BMP280;65462;52.148;7.940;2023-04-03T15:17:17;102243.63;;;10.45
76583;BMP280;65462;52.148;7.940;2023-04-03T15:19:43;102238.91;;;10.37
76583;BMP280;65462;52.148;7.940;2023-04-03T15:22:14;102239.22;;;10.36
76583;BMP280;65462;52.148;7.940;2023-04-03T15:24:39;102235.31;;;10.23
76583;BMP280;65462;52.148;7.940;2023-04-03T15:27:05;102228.78;;;10.15
76583;BMP280;65462;52.148;7.940;2023-04-03T15:29:30;102227.75;;;10.11
76583;BMP280;65462;52.148;7.940;2023-04-03T15:31:55;102242.56;;;10.07
76583;BMP280;65462;52.148;7.940;2023-04-03T15:34:21;102243.88;;;10.05
76583;BMP280;65462;52.148;7.940;2023-04-03T15:36:46;102231.28;;;9.97
76583;BMP280;65462;52.148;7.940;2023-04-03T15:39:12;102220.47;;;9.93
76583;BMP280;65462;52.148;7.940;2023-04-03T15:41:37;102224.16;;;9.92
76583;BMP280;65462;52.148;7.940;2023-04-03T15:44:02;102220.75;;;9.87
76583;BMP280;65462;52.148;7.940;2023-04-03T15:46:27;102227.59;;;9.88
76583;BMP280;65462;52.148;7.940;2023-04-03T15:48:53;102222.63;;;9.81
76583;BMP280;65462;52.148;7.940;2023-04-03T15:51:18;102217.13;;;9.78
76583;BMP280;65462;52.148;7.940;2023-04-03T15:53:43;102230.81;;;9.80
76583;BMP280;65462;52.148;7.940;2023-04-03T15:56:09;102231.34;;;9.82
76583;BMP280;65462;52.148;7.940;2023-04-03T15:58:34;102229.22;;;9.79
76583;BMP280;65462;52.148;7.940;2023-04-03T16:01:01;102218.72;;;9.74
76583;BMP280;65462;52.148;7.940;2023-04-03T16:03:27;102225.84;;;9.73
76583;BMP280;65462;52.148;7.940;2023-04-03T16:05:52;102222.69;;;9.71